| time (UTC) | temp F | wind direction | speed MPH | gust MPH | rain 1hr in | rain 24hr in | rain mn in | humidity % | barometer mb |
| 20260903230517 | 70 | 0 | 0.0 | 0.0 | 0.00 | 0.64 | 0.33 | 93 | 1014.7 |
| 20260903230039 | 70 | 0 | 0.0 | 0.0 | 0.00 | 0.64 | 0.33 | 93 | 1014.6 |
| 20260903225520 | 70 | 0 | 0.0 | 2.0 | 0.00 | 1.12 | 0.33 | 93 | 1014.2 |
| 20260903225019 | 70 | 0 | 0.0 | 2.0 | 0.00 | 1.12 | 0.33 | 93 | 1013.8 |
| 20260903224534 | 70 | 77 | 0.0 | 2.0 | 0.00 | 1.12 | 0.33 | 93 | 1013.5 |
| 20260903224017 | 70 | 77 | 0.0 | 1.0 | 0.00 | 1.12 | 0.33 | 93 | 1013.7 |
| 20260903223516 | 70 | 0 | 0.0 | 3.0 | 0.01 | 1.12 | 0.33 | 92 | 1013.9 |
| 20260903223035 | 70 | 0 | 0.0 | 3.0 | 0.02 | 1.12 | 0.33 | 92 | 1013.8 |
| 20260903222516 | 70 | 207 | 0.0 | 4.0 | 0.03 | 1.12 | 0.33 | 93 | 1014.0 |
| 20260903222016 | 71 | 0 | 0.0 | 4.0 | 0.04 | 1.12 | 0.33 | 93 | 1014.3 |
| 20260903221533 | 71 | 0 | 0.0 | 4.0 | 0.07 | 1.12 | 0.33 | 93 | 1014.4 |
| 20260903221018 | 71 | 0 | 0.0 | 1.0 | 0.10 | 1.12 | 0.33 | 93 | 1014.2 |
| 20260903220518 | 71 | 0 | 0.0 | 1.0 | 0.14 | 1.12 | 0.33 | 93 | 1014.2 |
| 20260903220037 | 71 | 0 | 0.0 | 1.0 | 0.16 | 1.12 | 0.33 | 93 | 1013.8 |
| 20260903215519 | 71 | 0 | 0.0 | 2.0 | 0.18 | 1.12 | 0.33 | 92 | 1013.7 |
| 20260903215020 | 71 | 0 | 0.0 | 2.0 | 0.20 | 1.12 | 0.33 | 92 | 1013.7 |
| 20260903214541 | 71 | 0 | 1.0 | 2.0 | 0.25 | 1.12 | 0.33 | 92 | 1013.8 |
| 20260903214018 | 71 | 0 | 0.0 | 1.0 | 0.27 | 1.11 | 0.32 | 92 | 1014.2 |
| 20260903213517 | 71 | 0 | 0.0 | 1.0 | 0.27 | 1.11 | 0.31 | 92 | 1014.5 |
| 20260903213042 | 71 | 0 | 0.0 | 1.0 | 0.28 | 1.10 | 0.30 | 92 | 1014.7 |
| 20260903212517 | 71 | 0 | 0.0 | 2.0 | 0.27 | 1.09 | 0.29 | 91 | 1015.0 |
| 20260903212016 | 72 | 0 | 0.0 | 3.0 | 0.25 | 1.07 | 0.27 | 91 | 1015.4 |
| 20260903211544 | 72 | 260 | 0.0 | 3.0 | 0.24 | 1.04 | 0.25 | 91 | 1015.7 |
| 20260903211017 | 72 | 260 | 1.0 | 3.0 | 0.21 | 1.01 | 0.22 | 91 | 1015.7 |
| 20260903210518 | 72 | 0 | 0.0 | 3.0 | 0.18 | 0.98 | 0.18 | 92 | 1015.8 |
| 20260903210033 | 73 | 300 | 0.0 | 2.0 | 0.14 | 0.95 | 0.15 | 91 | 1015.8 |
| 20260903205518 | 73 | 0 | 0.0 | 2.0 | 0.13 | 0.93 | 0.14 | 91 | 1015.5 |
| 20260903205019 | 73 | 0 | 0.0 | 2.0 | 0.11 | 0.91 | 0.11 | 91 | 1015.6 |
| 20260903204538 | 74 | 0 | 0.0 | 1.0 | 0.05 | 0.85 | 0.06 | 91 | 1015.6 |
| 20260903204022 | 74 | 0 | 0.0 | 3.0 | 0.03 | 0.84 | 0.04 | 91 | 1015.8 |
| 20260903203521 | 74 | 0 | 0.0 | 3.0 | 0.02 | 0.82 | 0.03 | 90 | 1016.0 |
| 20260903203036 | 74 | 0 | 0.0 | 3.0 | 0.01 | 0.81 | 0.02 | 90 | 1016.0 |
| 20260903202518 | 75 | 283 | 0.0 | 3.0 | 0.01 | 0.81 | 0.02 | 89 | 1015.8 |
| 20260903202023 | 75 | 251 | 0.0 | 2.0 | 0.00 | 0.81 | 0.01 | 89 | 1015.7 |
| 20260903201538 | 75 | 0 | 0.0 | 2.0 | 0.00 | 0.80 | 0.00 | 89 | 1015.3 |
| 20260903201018 | 75 | 0 | 0.0 | 1.0 | 0.00 | 0.80 | 0.00 | 88 | 1015.2 |
| 20260903200517 | 76 | 0 | 0.0 | 1.0 | 0.00 | 0.80 | 0.00 | 88 | 1014.9 |
| 20260903200034 | 76 | 245 | 0.0 | 1.0 | 0.00 | 0.80 | 0.00 | 88 | 1014.5 |
| 20260903195518 | 76 | 0 | 0.0 | 0.0 | 0.00 | 0.96 | 0.00 | 88 | 1014.3 |
| 20260903195016 | 76 | 0 | 0.0 | 1.0 | 0.00 | 0.96 | 0.00 | 87 | 1014.1 |
| 20260903194536 | 77 | 0 | 0.0 | 1.0 | 0.00 | 0.96 | 0.00 | 87 | 1014.2 |
| 20260903194015 | 77 | 0 | 0.0 | 0.0 | 0.00 | 0.96 | 0.00 | 87 | 1014.1 |
| 20260903193520 | 77 | 0 | 0.0 | 1.0 | 0.00 | 0.96 | 0.00 | 86 | 1014.2 |
| 20260903193039 | 77 | 0 | 0.0 | 1.0 | 0.00 | 0.96 | 0.00 | 85 | 1014.1 |
| 20260903192517 | 78 | 0 | 0.0 | 2.0 | 0.00 | 0.96 | 0.00 | 84 | 1014.1 |
| 20260903192019 | 78 | 0 | 0.0 | 2.0 | 0.00 | 0.96 | 0.00 | 84 | 1014.1 |
| 20260903191534 | 78 | 0 | 0.0 | 1.0 | 0.00 | 0.96 | 0.00 | 86 | 1014.3 |
| 20260903191016 | 78 | 0 | 0.0 | 1.0 | 0.00 | 0.96 | 0.00 | 84 | 1014.3 |
| 20260903190518 | 78 | 0 | 0.0 | 1.0 | 0.00 | 0.96 | 0.00 | 86 | 1014.3 |
| 20260903190034 | 78 | 0 | 0.0 | 2.0 | 0.00 | 0.96 | 0.00 | 85 | 1014.5 |
| 20260903185518 | 78 | 0 | 0.0 | 2.0 | 0.00 | 0.96 | 0.00 | 84 | 1014.5 |
| 20260903185018 | 78 | 0 | 0.0 | 2.0 | 0.00 | 0.96 | 0.00 | 84 | 1014.5 |
| 20260903184538 | 78 | 0 | 0.0 | 1.0 | 0.00 | 0.96 | 0.00 | 84 | 1014.3 |
| 20260903184019 | 78 | 0 | 0.0 | 0.0 | 0.00 | 0.96 | 0.00 | 84 | 1014.6 |
| 20260903183521 | 78 | 0 | 0.0 | 0.0 | 0.00 | 0.96 | 0.00 | 83 | 1014.6 |
| 20260903183035 | 78 | 0 | 0.0 | 2.0 | 0.00 | 0.96 | 0.00 | 83 | 1014.6 |
| 20260903182518 | 78 | 0 | 0.0 | 2.0 | 0.00 | 0.96 | 0.00 | 83 | 1014.9 |
| 20260903182018 | 78 | 0 | 0.0 | 2.0 | 0.00 | 0.96 | 0.00 | 82 | 1015.2 |
| 20260903181533 | 78 | 0 | 0.0 | 2.0 | 0.00 | 0.96 | 0.00 | 81 | 1015.4 |
| 20260903181020 | 79 | 0 | 0.0 | 2.0 | 0.00 | 0.96 | 0.00 | 81 | 1015.3 |
| 20260903180518 | 79 | 314 | 0.0 | 2.0 | 0.00 | 0.96 | 0.00 | 79 | 1015.3 |
| 20260903180039 | 80 | 0 | 0.0 | 2.0 | 0.00 | 0.96 | 0.00 | 78 | 1015.4 |
| 20260903175521 | 80 | 0 | 0.0 | 2.0 | 0.00 | 0.96 | 0.00 | 79 | 1015.4 |
| 20260903175019 | 80 | 254 | 0.0 | 2.0 | 0.00 | 0.96 | 0.00 | 79 | 1015.4 |
| 20260903174537 | 80 | 261 | 0.0 | 3.0 | 0.00 | 0.96 | 0.00 | 79 | 1015.4 |
| 20260903174018 | 81 | 260 | 0.0 | 3.0 | 0.00 | 0.96 | 0.00 | 77 | 1015.3 |
| 20260903173520 | 81 | 0 | 1.0 | 3.0 | 0.00 | 0.96 | 0.00 | 75 | 1015.3 |
| 20260903173039 | 81 | 193 | 0.0 | 3.0 | 0.00 | 0.96 | 0.00 | 78 | 1015.4 |
| 20260903172519 | 81 | 185 | 0.0 | 4.0 | 0.00 | 0.96 | 0.00 | 77 | 1015.5 |
| 20260903172018 | 80 | 278 | 0.0 | 4.0 | 0.00 | 0.96 | 0.00 | 76 | 1015.4 |
| 20260903171537 | 80 | 268 | 0.0 | 3.0 | 0.00 | 0.96 | 0.00 | 78 | 1015.4 |
| 20260903171016 | 80 | 0 | 0.0 | 3.0 | 0.00 | 0.96 | 0.00 | 78 | 1015.5 |
| 20260903170516 | 80 | 0 | 0.0 | 3.0 | 0.00 | 0.96 | 0.00 | 76 | 1015.6 |
| 20260903170036 | 80 | 0 | 0.0 | 2.0 | 0.00 | 0.96 | 0.00 | 80 | 1015.5 |
| 20260903165518 | 80 | 0 | 0.0 | 2.0 | 0.00 | 0.96 | 0.00 | 77 | 1015.3 |
| 20260903165021 | 80 | 0 | 0.0 | 2.0 | 0.00 | 0.96 | 0.00 | 79 | 1015.5 |
| 20260903164536 | 80 | 0 | 0.0 | 3.0 | 0.00 | 0.96 | 0.00 | 77 | 1015.4 |
| 20260903164020 | 80 | 210 | 0.0 | 3.0 | 0.00 | 0.96 | 0.00 | 78 | 1015.5 |
| 20260903163517 | 80 | 0 | 0.0 | 2.0 | 0.00 | 0.96 | 0.00 | 78 | 1015.8 |
| 20260903163042 | 80 | 0 | 0.0 | 4.0 | 0.00 | 0.96 | 0.00 | 79 | 1015.7 |
| 20260903162518 | 80 | 0 | 0.0 | 4.0 | 0.00 | 0.96 | 0.00 | 78 | 1015.7 |
| 20260903162021 | 80 | 0 | 1.0 | 4.0 | 0.00 | 0.96 | 0.00 | 77 | 1015.8 |
| 20260903161533 | 80 | 0 | 1.0 | 2.0 | 0.00 | 0.96 | 0.00 | 77 | 1015.7 |
| 20260903161018 | 79 | 45 | 0.0 | 2.0 | 0.00 | 0.96 | 0.00 | 77 | 1015.6 |
| 20260903160519 | 79 | 0 | 0.0 | 2.0 | 0.00 | 0.96 | 0.00 | 80 | 1015.7 |
| 20260903160033 | 78 | 0 | 0.0 | 2.0 | 0.00 | 0.96 | 0.00 | 81 | 1015.7 |
| 20260903155517 | 77 | 0 | 0.0 | 2.0 | 0.00 | 0.96 | 0.00 | 86 | 1015.5 |
| 20260903155018 | 77 | 204 | 0.0 | 2.0 | 0.00 | 0.96 | 0.00 | 83 | 1015.5 |
| 20260903154536 | 77 | 0 | 0.0 | 1.0 | 0.00 | 0.96 | 0.00 | 85 | 1015.3 |
| 20260903154020 | 77 | 0 | 0.0 | 1.0 | 0.00 | 0.96 | 0.00 | 82 | 1015.3 |
| 20260903153519 | 77 | 0 | 0.0 | 1.0 | 0.00 | 0.96 | 0.00 | 85 | 1015.2 |
| 20260903153033 | 77 | 204 | 0.0 | 2.0 | 0.00 | 0.96 | 0.00 | 85 | 1015.3 |
| 20260903152518 | 76 | 0 | 0.0 | 2.0 | 0.00 | 0.96 | 0.00 | 87 | 1015.3 |
| 20260903152017 | 76 | 202 | 0.0 | 2.0 | 0.00 | 0.96 | 0.00 | 88 | 1015.3 |
| 20260903151533 | 75 | 0 | 0.0 | 1.0 | 0.00 | 0.96 | 0.00 | 89 | 1015.2 |
| 20260903151017 | 75 | 0 | 0.0 | 1.0 | 0.00 | 0.96 | 0.00 | 91 | 1015.0 |
| 20260903150518 | 74 | 0 | 0.0 | 2.0 | 0.00 | 0.96 | 0.00 | 92 | 1015.2 |
| 20260903150036 | 74 | 328 | 0.0 | 2.0 | 0.00 | 0.96 | 0.00 | 93 | 1015.1 |
| 20260903145517 | 73 | 0 | 0.0 | 2.0 | 0.00 | 0.96 | 0.00 | 94 | 1015.3 |
| 20260903145016 | 73 | 0 | 0.0 | 2.0 | 0.00 | 0.96 | 0.00 | 95 | 1015.3 |
| 20260903144537 | 73 | 0 | 1.0 | 2.0 | 0.00 | 0.96 | 0.00 | 96 | 1015.3 |
| 20260903144018 | 72 | 223 | 0.0 | 2.0 | 0.00 | 0.95 | 0.00 | 96 | 1015.4 |
| 20260903143517 | 72 | 271 | 0.0 | 2.0 | 0.00 | 0.95 | 0.00 | 96 | 1015.4 |
| 20260903143032 | 72 | 168 | 0.0 | 2.0 | 0.00 | 0.95 | 0.00 | 96 | 1015.4 |
| 20260903142519 | 72 | 168 | 0.0 | 2.0 | 0.00 | 0.95 | 0.00 | 96 | 1015.2 |
| 20260903142019 | 72 | 0 | 0.0 | 2.0 | 0.00 | 0.95 | 0.00 | 96 | 1015.2 |
| 20260903141535 | 71 | 0 | 0.0 | 2.0 | 0.00 | 0.95 | 0.00 | 96 | 1015.3 |
| 20260903141016 | 71 | 140 | 0.0 | 1.0 | 0.00 | 0.95 | 0.00 | 96 | 1015.1 |
| 20260903140519 | 71 | 0 | 0.0 | 1.0 | 0.00 | 0.95 | 0.00 | 96 | 1015.2 |
| 20260903140043 | 71 | 0 | 0.0 | 1.0 | 0.00 | 0.95 | 0.00 | 96 | 1015.3 |
| 20260903135516 | 70 | 168 | 0.0 | 1.0 | 0.00 | 0.95 | 0.00 | 96 | 1015.2 |
| 20260903135022 | 70 | 0 | 0.0 | 1.0 | 0.00 | 0.95 | 0.00 | 96 | 1015.4 |
| 20260903134535 | 70 | 0 | 0.0 | 2.0 | 0.00 | 0.95 | 0.00 | 96 | 1015.3 |
| 20260903134021 | 69 | 0 | 0.0 | 2.0 | 0.00 | 0.95 | 0.00 | 96 | 1015.3 |
| 20260903133519 | 69 | 170 | 0.0 | 2.0 | 0.00 | 0.95 | 0.00 | 96 | 1015.4 |
| 20260903133033 | 69 | 170 | 0.0 | 2.0 | 0.00 | 0.95 | 0.00 | 96 | 1015.4 |
| 20260903132518 | 69 | 0 | 0.0 | 1.0 | 0.00 | 0.95 | 0.00 | 96 | 1015.4 |
| 20260903132024 | 69 | 0 | 0.0 | 1.0 | 0.00 | 0.95 | 0.00 | 96 | 1015.5 |
| 20260903131537 | 68 | 0 | 0.0 | 1.0 | 0.00 | 0.95 | 0.00 | 96 | 1015.5 |
| 20260903131017 | 68 | 0 | 0.0 | 1.0 | 0.00 | 0.95 | 0.00 | 96 | 1015.5 |
| 20260903130517 | 68 | 0 | 0.0 | 2.0 | 0.00 | 0.95 | 0.00 | 96 | 1015.5 |
| 20260903130044 | 68 | 89 | 0.0 | 2.0 | 0.00 | 0.95 | 0.00 | 96 | 1015.6 |
| 20260903125519 | 68 | 89 | 0.0 | 2.0 | 0.00 | 0.95 | 0.00 | 96 | 1015.7 |
| 20260903125018 | 67 | 0 | 0.0 | 2.0 | 0.00 | 0.95 | 0.00 | 96 | 1015.6 |
| 20260903124547 | 67 | 0 | 0.0 | 2.0 | 0.00 | 0.95 | 0.00 | 96 | 1015.6 |
| 20260903124017 | 67 | 0 | 0.0 | 2.0 | 0.00 | 0.95 | 0.00 | 95 | 1015.6 |
| 20260903123519 | 67 | 0 | 0.0 | 2.0 | 0.00 | 0.95 | 0.00 | 95 | 1015.6 |
| 20260903123037 | 67 | 71 | 0.0 | 2.0 | 0.00 | 0.95 | 0.00 | 95 | 1015.6 |
| 20260903122518 | 67 | 0 | 0.0 | 1.0 | 0.00 | 0.95 | 0.00 | 95 | 1015.5 |
| 20260903122018 | 66 | 0 | 0.0 | 1.0 | 0.00 | 0.95 | 0.00 | 95 | 1015.5 |
| 20260903121539 | 66 | 71 | 0.0 | 1.0 | 0.00 | 0.95 | 0.00 | 95 | 1015.4 |
| 20260903121018 | 66 | 0 | 0.0 | 1.0 | 0.00 | 0.95 | 0.00 | 95 | 1015.5 |
| 20260903120516 | 66 | 0 | 0.0 | 1.0 | 0.00 | 0.95 | 0.00 | 95 | 1015.4 |
| 20260903120033 | 66 | 0 | 0.0 | 1.0 | 0.00 | 0.95 | 0.00 | 95 | 1015.5 |
| 20260903115520 | 66 | 0 | 0.0 | 1.0 | 0.00 | 0.95 | 0.00 | 95 | 1015.4 |
| 20260903115015 | 66 | 0 | 0.0 | 0.0 | 0.00 | 0.95 | 0.00 | 95 | 1015.4 |
| 20260903114534 | 66 | 0 | 0.0 | 0.0 | 0.00 | 0.95 | 0.00 | 95 | 1015.3 |
| 20260903114020 | 66 | 0 | 0.0 | 0.0 | 0.00 | 0.95 | 0.00 | 95 | 1015.2 |
| 20260903113519 | 66 | 0 | 0.0 | 1.0 | 0.00 | 0.95 | 0.00 | 95 | 1015.2 |
| 20260903113036 | 66 | 0 | 0.0 | 1.0 | 0.00 | 0.95 | 0.00 | 95 | 1015.1 |
| 20260903112519 | 66 | 0 | 0.0 | 1.0 | 0.00 | 0.95 | 0.00 | 95 | 1015.2 |
| 20260903112019 | 66 | 0 | 0.0 | 0.0 | 0.00 | 0.95 | 0.00 | 95 | 1015.3 |
| 20260903111537 | 66 | 0 | 0.0 | 0.0 | 0.00 | 0.95 | 0.00 | 95 | 1015.2 |
| 20260903111021 | 66 | 0 | 0.0 | 0.0 | 0.00 | 0.95 | 0.00 | 95 | 1015.2 |
| 20260903110519 | 66 | 0 | 0.0 | 0.0 | 0.00 | 0.95 | 0.00 | 95 | 1015.1 |
| 20260903110041 | 66 | 0 | 0.0 | 0.0 | 0.00 | 0.95 | 0.00 | 95 | 1015.1 |
| 20260903105516 | 66 | 0 | 0.0 | 3.0 | 0.00 | 0.95 | 0.00 | 95 | 1015.2 |
| 20260903105018 | 66 | 0 | 0.0 | 3.0 | 0.00 | 0.95 | 0.00 | 95 | 1015.1 |
| 20260903104536 | 65 | 280 | 0.0 | 1.0 | 0.00 | 0.95 | 0.00 | 95 | 1015.0 |
| 20260903104022 | 65 | 0 | 0.0 | 1.0 | 0.00 | 0.95 | 0.00 | 95 | 1014.9 |
| 20260903103521 | 65 | 257 | 0.0 | 1.0 | 0.00 | 0.95 | 0.00 | 95 | 1014.9 |
| 20260903103038 | 65 | 0 | 0.0 | 1.0 | 0.00 | 0.95 | 0.00 | 94 | 1014.9 |
| 20260903102518 | 65 | 0 | 0.0 | 1.0 | 0.00 | 0.95 | 0.00 | 94 | 1014.7 |
| 20260903102021 | 65 | 0 | 0.0 | 0.0 | 0.00 | 0.95 | 0.00 | 94 | 1014.7 |
| 20260903101536 | 65 | 0 | 0.0 | 0.0 | 0.00 | 0.95 | 0.00 | 94 | 1014.6 |
| 20260903101016 | 65 | 0 | 0.0 | 0.0 | 0.00 | 0.95 | 0.00 | 94 | 1014.6 |
| 20260903100516 | 65 | 0 | 0.0 | 0.0 | 0.00 | 0.95 | 0.00 | 94 | 1014.6 |
| 20260903100038 | 65 | 0 | 0.0 | 0.0 | 0.00 | 0.95 | 0.00 | 94 | 1014.6 |
| 20260903095518 | 65 | 0 | 0.0 | 0.0 | 0.00 | 0.95 | 0.00 | 94 | 1014.5 |
| 20260903095017 | 65 | 0 | 0.0 | 0.0 | 0.00 | 0.95 | 0.00 | 94 | 1014.5 |
| 20260903094545 | 65 | 0 | 0.0 | 0.0 | 0.00 | 0.95 | 0.00 | 94 | 1014.6 |
| 20260903094019 | 65 | 0 | 0.0 | 0.0 | 0.00 | 0.95 | 0.00 | 94 | 1014.3 |
| 20260903093523 | 65 | 0 | 0.0 | 0.0 | 0.00 | 0.95 | 0.00 | 94 | 1014.2 |
| 20260903093034 | 65 | 0 | 0.0 | 0.0 | 0.00 | 0.95 | 0.00 | 94 | 1014.2 |
| 20260903092518 | 65 | 0 | 0.0 | 0.0 | 0.00 | 0.95 | 0.00 | 94 | 1014.2 |
| 20260903092018 | 65 | 0 | 0.0 | 0.0 | 0.00 | 0.95 | 0.00 | 94 | 1014.2 |
| 20260903091535 | 65 | 0 | 0.0 | 0.0 | 0.00 | 0.95 | 0.00 | 94 | 1014.3 |
| 20260903091016 | 65 | 0 | 0.0 | 0.0 | 0.00 | 0.95 | 0.00 | 94 | 1014.3 |
| 20260903090516 | 65 | 0 | 0.0 | 0.0 | 0.00 | 0.95 | 0.00 | 94 | 1014.3 |
| 20260903090040 | 65 | 0 | 0.0 | 0.0 | 0.00 | 0.95 | 0.00 | 94 | 1014.3 |
| 20260903085516 | 66 | 0 | 0.0 | 0.0 | 0.00 | 0.95 | 0.00 | 94 | 1014.3 |
| 20260903085017 | 66 | 0 | 0.0 | 0.0 | 0.00 | 0.95 | 0.00 | 94 | 1014.3 |
| 20260903084535 | 66 | 0 | 0.0 | 0.0 | 0.00 | 0.95 | 0.00 | 94 | 1014.2 |
| 20260903084018 | 66 | 0 | 0.0 | 0.0 | 0.00 | 0.95 | 0.00 | 94 | 1014.2 |
| 20260903083518 | 66 | 0 | 0.0 | 0.0 | 0.00 | 0.95 | 0.00 | 94 | 1014.1 |
| 20260903083053 | 66 | 0 | 0.0 | 0.0 | 0.00 | 0.95 | 0.00 | 94 | 1014.1 |
| 20260903082519 | 66 | 0 | 0.0 | 0.0 | 0.00 | 0.95 | 0.00 | 94 | 1014.0 |
| 20260903082017 | 66 | 0 | 0.0 | 0.0 | 0.00 | 0.95 | 0.00 | 94 | 1014.0 |
| 20260903081536 | 66 | 0 | 0.0 | 0.0 | 0.00 | 0.95 | 0.00 | 94 | 1014.0 |
| 20260903081020 | 66 | 0 | 0.0 | 0.0 | 0.00 | 0.95 | 0.00 | 94 | 1013.9 |
| 20260903080518 | 66 | 0 | 0.0 | 0.0 | 0.00 | 0.95 | 0.00 | 94 | 1013.9 |
| 20260903080034 | 66 | 0 | 0.0 | 0.0 | 0.00 | 0.95 | 0.00 | 94 | 1014.0 |
| 20260903075516 | 66 | 0 | 0.0 | 0.0 | 0.00 | 0.95 | 0.00 | 94 | 1014.0 |
| 20260903075017 | 66 | 0 | 0.0 | 0.0 | 0.00 | 0.95 | 0.00 | 94 | 1014.1 |
| 20260903074533 | 66 | 0 | 0.0 | 0.0 | 0.00 | 0.95 | 0.00 | 94 | 1014.0 |
| 20260903074018 | 66 | 0 | 0.0 | 0.0 | 0.00 | 0.95 | 0.00 | 94 | 1014.0 |
| 20260903073517 | 67 | 0 | 0.0 | 0.0 | 0.00 | 0.95 | 0.00 | 94 | 1014.0 |
| 20260903073034 | 67 | 0 | 0.0 | 0.0 | 0.00 | 0.95 | 0.00 | 94 | 1014.0 |
| 20260903072519 | 67 | 0 | 0.0 | 0.0 | 0.00 | 0.95 | 0.00 | 94 | 1013.9 |
| 20260903072023 | 67 | 0 | 0.0 | 0.0 | 0.00 | 0.95 | 0.00 | 94 | 1013.8 |
| 20260903071553 | 67 | 0 | 0.0 | 2.0 | 0.00 | 0.95 | 0.00 | 94 | 1013.8 |
| 20260903071018 | 67 | 0 | 0.0 | 2.0 | 0.00 | 0.95 | 0.00 | 94 | 1013.7 |
| 20260903070517 | 67 | 338 | 0.0 | 1.0 | 0.00 | 0.95 | 0.00 | 94 | 1013.7 |
| 20260903070039 | 67 | 0 | 0.0 | 0.0 | 0.00 | 0.95 | 0.00 | 94 | 1013.8 |
| 20260903065519 | 67 | 0 | 0.0 | 0.0 | 0.00 | 0.95 | 0.00 | 94 | 1013.7 |
| 20260903065019 | 67 | 0 | 0.0 | 0.0 | 0.00 | 0.95 | 0.00 | 94 | 1013.8 |
| 20260903064538 | 67 | 0 | 0.0 | 0.0 | 0.00 | 0.95 | 0.00 | 94 | 1013.9 |
| 20260903064019 | 67 | 0 | 0.0 | 0.0 | 0.00 | 0.95 | 0.00 | 94 | 1013.9 |
| 20260903063519 | 67 | 0 | 0.0 | 0.0 | 0.00 | 0.95 | 0.00 | 94 | 1014.0 |
| 20260903063045 | 67 | 0 | 0.0 | 0.0 | 0.00 | 0.95 | 0.00 | 94 | 1014.0 |
| 20260903062518 | 68 | 0 | 0.0 | 0.0 | 0.00 | 0.95 | 0.00 | 94 | 1014.1 |
| 20260903062020 | 68 | 0 | 0.0 | 0.0 | 0.00 | 0.95 | 0.00 | 94 | 1014.1 |
| 20260903061539 | 68 | 0 | 0.0 | 0.0 | 0.00 | 0.95 | 0.00 | 94 | 1014.2 |
| 20260903061022 | 68 | 0 | 0.0 | 1.0 | 0.00 | 0.95 | 0.00 | 94 | 1014.2 |
| 20260903060520 | 68 | 0 | 0.0 | 1.0 | 0.00 | 0.95 | 0.00 | 94 | 1014.6 |
| 20260903060107 | 68 | 0 | 0.0 | 0.0 | 0.00 | 0.95 | 0.00 | 94 | 1014.6 |
| 20260903055523 | 68 | 0 | 0.0 | 0.0 | 0.00 | 0.95 | 0.00 | 94 | 1014.6 |
| 20260903055019 | 68 | 0 | 0.0 | 1.0 | 0.00 | 0.95 | 0.00 | 94 | 1014.6 |
| 20260903054536 | 68 | 0 | 0.0 | 1.0 | 0.00 | 0.95 | 0.00 | 94 | 1014.6 |
| 20260903054019 | 68 | 0 | 0.0 | 1.0 | 0.00 | 0.95 | 0.00 | 94 | 1014.6 |
| 20260903053519 | 68 | 0 | 0.0 | 1.0 | 0.00 | 0.95 | 0.00 | 94 | 1014.6 |
| 20260903053038 | 68 | 0 | 0.0 | 1.0 | 0.00 | 0.95 | 0.00 | 94 | 1014.6 |
| 20260903052519 | 68 | 0 | 0.0 | 1.0 | 0.00 | 0.95 | 0.00 | 94 | 1014.6 |
| 20260903052016 | 68 | 0 | 0.0 | 1.0 | 0.00 | 0.95 | 0.00 | 94 | 1014.4 |
| 20260903051539 | 68 | 0 | 0.0 | 1.0 | 0.00 | 0.95 | 0.00 | 94 | 1014.2 |
| 20260903051016 | 68 | 0 | 0.0 | 0.0 | 0.00 | 0.95 | 0.00 | 94 | 1014.2 |
| 20260903050517 | 68 | 0 | 0.0 | 1.0 | 0.00 | 0.95 | 0.00 | 94 | 1014.1 |
| 20260903050040 | 68 | 0 | 0.0 | 1.0 | 0.00 | 0.95 | 0.00 | 94 | 1014.1 |
| 20260903045520 | 68 | 0 | 0.0 | 0.0 | 0.00 | 0.95 | 0.00 | 94 | 1014.1 |
| 20260903045019 | 68 | 0 | 0.0 | 1.0 | 0.00 | 0.95 | 0.00 | 94 | 1014.2 |
| 20260903044540 | 68 | 0 | 0.0 | 1.0 | 0.00 | 0.95 | 0.00 | 94 | 1014.1 |
| 20260903044021 | 68 | 0 | 0.0 | 1.0 | 0.00 | 0.95 | 0.00 | 94 | 1014.2 |
| 20260903043520 | 68 | 0 | 0.0 | 0.0 | 0.00 | 0.95 | 0.00 | 94 | 1014.0 |
| 20260903043038 | 68 | 0 | 0.0 | 0.0 | 0.00 | 0.95 | 0.00 | 94 | 1013.9 |
| 20260903042516 | 68 | 0 | 0.0 | 1.0 | 0.00 | 0.95 | 0.00 | 94 | 1013.9 |
| 20260903042019 | 68 | 0 | 0.0 | 1.0 | 0.00 | 0.95 | 0.00 | 94 | 1013.8 |
| 20260903041540 | 68 | 0 | 0.0 | 0.0 | 0.00 | 0.95 | 0.00 | 94 | 1013.9 |
| 20260903041017 | 68 | 0 | 0.0 | 0.0 | 0.00 | 0.95 | 0.00 | 94 | 1013.7 |
| 20260903040516 | 68 | 0 | 0.0 | 1.0 | 0.00 | 0.95 | 0.00 | 94 | 1013.3 |
| 20260903040050 | 68 | 0 | 0.0 | 1.0 | 0.00 | 0.95 | 0.00 | 94 | 1013.1 |
| 20260903035517 | 68 | 0 | 0.0 | 1.0 | 0.00 | 0.95 | 0.95 | 94 | 1013.5 |
| 20260903035017 | 68 | 0 | 0.0 | 1.0 | 0.00 | 0.95 | 0.95 | 94 | 1013.5 |
| 20260903034542 | 68 | 0 | 0.0 | 1.0 | 0.00 | 0.95 | 0.95 | 94 | 1013.4 |
| 20260903034019 | 68 | 0 | 0.0 | 1.0 | 0.00 | 0.95 | 0.95 | 94 | 1013.5 |
| 20260903033518 | 69 | 0 | 0.0 | 1.0 | 0.00 | 0.95 | 0.95 | 94 | 1013.5 |
| 20260903033037 | 69 | 0 | 0.0 | 1.0 | 0.00 | 0.95 | 0.95 | 94 | 1013.4 |
| 20260903032518 | 69 | 0 | 0.0 | 0.0 | 0.00 | 0.95 | 0.95 | 94 | 1013.1 |
| 20260903032015 | 69 | 0 | 0.0 | 0.0 | 0.00 | 0.95 | 0.95 | 94 | 1013.1 |
| 20260903031534 | 69 | 0 | 0.0 | 1.0 | 0.00 | 0.95 | 0.95 | 94 | 1013.0 |
| 20260903031018 | 69 | 0 | 0.0 | 1.0 | 0.00 | 0.95 | 0.95 | 94 | 1012.9 |
| 20260903030518 | 69 | 0 | 0.0 | 2.0 | 0.00 | 0.95 | 0.95 | 94 | 1013.1 |
| 20260903030035 | 69 | 0 | 0.0 | 2.0 | 0.00 | 0.95 | 0.95 | 94 | 1013.2 |
| 20260903025520 | 68 | 338 | 0.0 | 2.0 | 0.00 | 0.95 | 0.95 | 94 | 1013.3 |
| 20260903025017 | 68 | 338 | 0.0 | 2.0 | 0.00 | 0.95 | 0.95 | 94 | 1013.7 |
| 20260903024535 | 69 | 0 | 0.0 | 1.0 | 0.03 | 0.95 | 0.95 | 94 | 1013.6 |
| 20260903024018 | 69 | 338 | 0.0 | 2.0 | 0.22 | 0.95 | 0.95 | 94 | 1013.6 |
| 20260903023518 | 69 | 0 | 0.0 | 2.0 | 0.23 | 0.95 | 0.95 | 94 | 1013.6 |
| 20260903023049 | 68 | 338 | 0.0 | 2.0 | 0.25 | 0.95 | 0.95 | 94 | 1013.8 |
| 20260903022517 | 68 | 0 | 0.0 | 2.0 | 0.25 | 0.95 | 0.95 | 94 | 1013.9 |
| 20260903022017 | 68 | 338 | 0.0 | 2.0 | 0.25 | 0.95 | 0.95 | 94 | 1014.0 |
| 20260903021534 | 68 | 338 | 1.0 | 2.0 | 0.25 | 0.95 | 0.95 | 94 | 1014.2 |
| 20260903021019 | 68 | 316 | 0.0 | 1.0 | 0.26 | 0.95 | 0.95 | 94 | 1013.8 |
| 20260903020517 | 68 | 316 | 0.0 | 1.0 | 0.28 | 0.95 | 0.95 | 94 | 1013.8 |
| 20260903020036 | 68 | 0 | 0.0 | 4.0 | 0.28 | 0.95 | 0.95 | 94 | 1013.6 |
| 20260903015518 | 68 | 0 | 0.0 | 5.0 | 0.28 | 0.95 | 0.95 | 94 | 1013.9 |
| 20260903015018 | 68 | 168 | 0.0 | 6.0 | 0.27 | 0.94 | 0.94 | 94 | 1013.9 |
| 20260903014545 | 68 | 133 | 2.0 | 6.0 | 0.21 | 0.88 | 0.88 | 93 | 1014.4 |
| 20260903014018 | 68 | 0 | 0.0 | 3.0 | 0.05 | 0.72 | 0.72 | 93 | 1015.4 |
| 20260903013516 | 68 | 0 | 0.0 | 3.0 | 0.03 | 0.70 | 0.70 | 93 | 1015.1 |
| 20260903013043 | 68 | 94 | 0.0 | 2.0 | 0.02 | 0.69 | 0.69 | 93 | 1014.4 |
| 20260903012516 | 68 | 0 | 0.0 | 3.0 | 0.02 | 0.69 | 0.69 | 93 | 1014.3 |
| 20260903012020 | 68 | 94 | 0.0 | 3.0 | 0.02 | 0.69 | 0.69 | 93 | 1014.2 |
| 20260903011536 | 68 | 29 | 1.0 | 3.0 | 0.02 | 0.69 | 0.69 | 93 | 1013.8 |
| 20260903011020 | 68 | 211 | 0.0 | 2.0 | 0.00 | 0.67 | 0.67 | 93 | 1014.3 |
| 20260903010045 | 68 | 233 | 0.0 | 2.0 | 0.00 | 0.66 | 0.66 | 93 | 1014.9 |
| 20260903005522 | 68 | 0 | 0.0 | 1.0 | 0.01 | 0.66 | 0.66 | 93 | 1014.9 |
| 20260903005021 | 68 | 0 | 0.0 | 1.0 | 0.01 | 0.66 | 0.66 | 93 | 1014.3 |
| 20260903004535 | 68 | 0 | 0.0 | 2.0 | 0.02 | 0.66 | 0.66 | 93 | 1014.0 |
| 20260903004018 | 68 | 0 | 0.0 | 2.0 | 0.03 | 0.66 | 0.66 | 93 | 1013.8 |
| 20260903003516 | 68 | 131 | 0.0 | 1.0 | 0.03 | 0.66 | 0.66 | 93 | 1013.6 |
| 20260903003039 | 68 | 0 | 0.0 | 2.0 | 0.02 | 0.66 | 0.66 | 93 | 1013.6 |
| 20260903002516 | 69 | 0 | 0.0 | 2.0 | 0.02 | 0.66 | 0.66 | 93 | 1013.8 |
| 20260903002020 | 69 | 121 | 0.0 | 2.0 | 0.02 | 0.66 | 0.66 | 93 | 1013.7 |
| 20260903001538 | 69 | 47 | 0.0 | 2.0 | 0.02 | 0.66 | 0.66 | 93 | 1013.3 |
| 20260903001018 | 69 | 0 | 0.0 | 2.0 | 0.02 | 0.66 | 0.66 | 93 | 1012.8 |
| 20260903000519 | 69 | 46 | 1.0 | 2.0 | 0.02 | 0.66 | 0.66 | 94 | 1013.1 |
| 20260903000035 | 68 | 0 | 0.0 | 1.0 | 0.02 | 0.66 | 0.66 | 93 | 1013.5 |
| 20260902235519 | 68 | 63 | 0.0 | 1.0 | 0.01 | 0.65 | 0.65 | 93 | 1013.8 |
| 20260902235021 | 68 | 0 | 0.0 | 1.0 | 0.01 | 0.65 | 0.65 | 93 | 1013.9 |
| 20260902234551 | 68 | 0 | 0.0 | 1.0 | 0.00 | 0.64 | 0.64 | 93 | 1014.0 |
| 20260902234022 | 68 | 0 | 0.0 | 1.0 | 0.00 | 0.63 | 0.63 | 93 | 1014.0 |
| 20260902233516 | 68 | 0 | 0.0 | 1.0 | 0.00 | 0.63 | 0.63 | 93 | 1014.1 |
| 20260902233037 | 68 | 0 | 0.0 | 1.0 | 0.00 | 0.63 | 0.63 | 93 | 1013.6 |
| 20260902232519 | 69 | 63 | 0.0 | 1.0 | 0.00 | 0.63 | 0.63 | 93 | 1013.6 |
| 20260902232017 | 69 | 0 | 0.0 | 0.0 | 0.00 | 0.63 | 0.63 | 93 | 1013.7 |
| 20260902231543 | 69 | 0 | 0.0 | 0.0 | 0.00 | 0.63 | 0.63 | 93 | 1013.7 |
| 20260902231017 | 69 | 0 | 0.0 | 0.0 | 0.00 | 0.63 | 0.63 | 93 | 1014.0 |